^^
Your Local Weather - Clay, NY Station Historical Data
Daily Summary for April 24, 2017 Units:  Metric    English   Both
« Previous Day
Next Day »
Daily Weekly Monthly Yearly Custom
  High: Low: Average:
Temperature: 20.3 °C 2.4 °C 11.6 °C
Dew Point: 8.6 °C 1.1 °C 4.6 °C
Humidity: 93% 35% 66%
Wind Speed: 8km/h 0km/h 2.1km/h
Wind Gust: 12.9km/h - -
Wind- - SW
Pressure: 1020.9 hPa 1016.5 hPa -
Precipitation: 0 mm    
Historical Graphs
 
 
Tabular Data for April 24, 2017
Time Temperature Dew Point Pressure Wind Wind Speed Wind Gust Humidity Rainfall Rate (Hourly) solar
00:04 6.5 °C 3.1 °C 1017.2 hPa Calm     79% 0 mm 0 W/m2
00:10 6.3 °C 2.9 °C 1017.2 hPa Calm     79% 0 mm 0 W/m2
00:16 6.2 °C 2.8 °C 1017.2 hPa Calm     79% 0 mm 0 W/m2
00:22 6.1 °C 3.1 °C 1017.2 hPa Calm     81% 0 mm 0 W/m2
00:28 6 °C 3.2 °C 1017.2 hPa Calm     82% 0 mm 0 W/m2
00:34 6.1 °C 3.4 °C 1017.2 hPa Calm     83% 0 mm 0 W/m2
00:40 6.2 °C 3.7 °C 1017.2 hPa Calm     84% 0 mm 0 W/m2
00:46 6.2 °C 3.7 °C 1017.2 hPa Calm     84% 0 mm 0 W/m2
00:52 6.1 °C 3.6 °C 1017.2 hPa Calm     84% 0 mm 0 W/m2
00:58 6 °C 3.5 °C 1017.2 hPa Calm     84% 0 mm 0 W/m2
01:04 5.9 °C 3.4 °C 1017.2 hPa Calm     84% 0 mm 0 W/m2
01:10 5.8 °C 3.3 °C 1017.5 hPa Calm     84% 0 mm 0 W/m2
01:16 5.7 °C 3.2 °C 1017.2 hPa Calm     84% 0 mm 0 W/m2
01:22 5.6 °C 3.3 °C 1017.2 hPa Calm     85% 0 mm 0 W/m2
01:28 5.6 °C 3.2 °C 1017.5 hPa Calm     85% 0 mm 0 W/m2
01:34 5.4 °C 3.1 °C 1017.2 hPa Calm   1.6 km/h 85% 0 mm 0 W/m2
01:40 5.3 °C 3.1 °C 1017.2 hPa Calm     86% 0 mm 0 W/m2
01:46 5.2 °C 3 °C 1017.5 hPa Calm     86% 0 mm 0 W/m2
01:52 5.1 °C 2.9 °C 1017.5 hPa Calm     86% 0 mm 0 W/m2
01:58 4.9 °C 2.9 °C 1017.5 hPa Calm     87% 0 mm 0 W/m2
02:04 4.8 °C 2.8 °C 1017.5 hPa Calm     87% 0 mm 0 W/m2
02:10 4.7 °C 2.7 °C 1017.2 hPa Calm     87% 0 mm 0 W/m2
02:16 4.6 °C 2.6 °C 1017.2 hPa Calm     87% 0 mm 0 W/m2
02:22 4.4 °C 2.4 °C 1017.2 hPa Calm     87% 0 mm 0 W/m2
02:28 4.3 °C 2.5 °C 1017.5 hPa Calm     88% 0 mm 0 W/m2
02:34 4.3 °C 2.4 °C 1017.5 hPa Calm     88% 0 mm 0 W/m2
02:40 4.3 °C 2.4 °C 1017.5 hPa Calm     88% 0 mm 0 W/m2
02:46 4.2 °C 2.4 °C 1017.5 hPa Calm     88% 0 mm 0 W/m2
02:52 4.2 °C 2.3 °C 1017.5 hPa Calm     88% 0 mm 0 W/m2
03:04 4.2 °C 2.6 °C 1017.5 hPa Calm     89% 0 mm 0 W/m2
03:10 4.1 °C 2.4 °C 1017.5 hPa Calm     89% 0 mm 0 W/m2
03:16 4.2 °C 2.5 °C 1017.5 hPa Calm     89% 0 mm 0 W/m2
03:22 4.1 °C 2.4 °C 1017.5 hPa Calm     89% 0 mm 0 W/m2
03:28 4.1 °C 2.4 °C 1017.5 hPa Calm     89% 0 mm 0 W/m2
03:34 4.1 °C 2.4 °C 1017.5 hPa Calm     89% 0 mm 0 W/m2
03:40 4 °C 2.5 °C 1017.5 hPa Calm     90% 0 mm 0 W/m2
03:46 3.9 °C 2.3 °C 1017.5 hPa Calm     89% 0 mm 0 W/m2
03:52 4 °C 2.5 °C 1017.5 hPa Calm     90% 0 mm 0 W/m2
03:58 3.8 °C 2.3 °C 1017.5 hPa NW 1.6 km/h 1.6 km/h 90% 0 mm 0 W/m2
04:04 3.9 °C 2.4 °C 1017.5 hPa NW 1.6 km/h 1.6 km/h 90% 0 mm 0 W/m2
04:10 3.8 °C 2.3 °C 1017.5 hPa Calm     90% 0 mm 0 W/m2
04:16 3.8 °C 2.3 °C 1017.8 hPa Calm   1.6 km/h 90% 0 mm 0 W/m2
04:22 3.7 °C 2.2 °C 1017.5 hPa Calm     90% 0 mm 0 W/m2
04:28 3.6 °C 2.1 °C 1017.8 hPa Calm     90% 0 mm 0 W/m2
04:34 3.6 °C 2.1 °C 1017.8 hPa Calm     90% 0 mm 0 W/m2
04:40 3.5 °C 2 °C 1017.8 hPa Calm     90% 0 mm 0 W/m2
04:46 3.5 °C 2 °C 1017.8 hPa Calm     90% 0 mm 0 W/m2
04:52 3.4 °C 1.9 °C 1018.2 hPa NW 1.6 km/h 3.2 km/h 90% 0 mm 0 W/m2
04:58 3.3 °C 1.8 °C 1018.2 hPa NW 1.6 km/h 3.2 km/h 90% 0 mm 0 W/m2
05:04 3.3 °C 1.9 °C 1018.2 hPa Calm   1.6 km/h 91% 0 mm 0 W/m2
05:10 3.2 °C 1.9 °C 1018.2 hPa Calm     91% 0 mm 0 W/m2
05:16 3.1 °C 1.7 °C 1018.2 hPa Calm     91% 0 mm 0 W/m2
05:22 2.9 °C 1.6 °C 1018.2 hPa Calm     91% 0 mm 0 W/m2
05:28 2.8 °C 1.5 °C 1018.2 hPa Calm     91% 0 mm 0 W/m2
05:34 2.8 °C 1.5 °C 1018.2 hPa Calm     91% 0 mm 0 W/m2
05:40 2.8 °C 1.4 °C 1018.2 hPa Calm     91% 0 mm 0 W/m2
05:46 2.7 °C 1.3 °C 1018.5 hPa Calm     91% 0 mm 0 W/m2
05:52 2.7 °C 1.3 °C 1018.8 hPa Calm     91% 0 mm 0 W/m2
05:58 2.6 °C 1.2 °C 1018.8 hPa Calm     91% 0 mm 0 W/m2
06:04 2.5 °C 1.2 °C 1018.8 hPa Calm     91% 0 mm 0 W/m2
06:10 2.5 °C 1.2 °C 1018.8 hPa Calm     91% 0 mm 5 W/m2
06:16 2.4 °C 1.1 °C 1018.8 hPa Calm     91% 0 mm 7 W/m2
06:22 2.4 °C 1.1 °C 1018.8 hPa Calm     91% 0 mm 11 W/m2
06:28 2.4 °C 1.1 °C 1018.8 hPa Calm     91% 0 mm 14 W/m2
06:34 2.4 °C 1.3 °C 1019.2 hPa Calm     92% 0 mm 18 W/m2
06:40 2.4 °C 1.3 °C 1019.2 hPa Calm     92% 0 mm 30 W/m2
06:46 2.6 °C 1.4 °C 1019.2 hPa Calm   1.6 km/h 92% 0 mm 39 W/m2
06:52 2.7 °C 1.5 °C 1019.2 hPa Calm     92% 0 mm 47 W/m2
06:58 2.8 °C 1.7 °C 1019.5 hPa Calm     92% 0 mm 102 W/m2
07:04 3.2 °C 2 °C 1019.5 hPa Calm     92% 0 mm 125 W/m2
07:10 3.9 °C 2.8 °C 1019.9 hPa Calm     92% 0 mm 146 W/m2
07:16 4.4 °C 3.2 °C 1019.9 hPa Calm     92% 0 mm 158 W/m2
07:22 4.7 °C 3.6 °C 1019.9 hPa Calm     93% 0 mm 174 W/m2
07:28 5.2 °C 4.1 °C 1020.2 hPa Calm     93% 0 mm 192 W/m2
07:34 5.4 °C 4.2 °C 1020.2 hPa Calm     92% 0 mm 204 W/m2
07:40 5.8 °C 4.4 °C 1020.2 hPa Calm   1.6 km/h 91% 0 mm 221 W/m2
07:46 5.9 °C 4.4 °C 1020.2 hPa NNW 1.6 km/h 4.8 km/h 90% 0 mm 241 W/m2
07:52 6.2 °C 4.3 °C 1020.2 hPa North 3.2 km/h 3.2 km/h 88% 0 mm 264 W/m2
07:58 6.1 °C 4.1 °C 1020.2 hPa North 1.6 km/h 3.2 km/h 87% 0 mm 221 W/m2
08:04 6.4 °C 4.3 °C 1020.2 hPa Calm   1.6 km/h 86% 0 mm 269 W/m2
08:10 6.8 °C 4.4 °C 1020.2 hPa Calm     85% 0 mm 301 W/m2
08:16 7.3 °C 4.8 °C 1020.5 hPa Calm     84% 0 mm 313 W/m2
08:22 7.9 °C 5.2 °C 1020.2 hPa Calm     83% 0 mm 306 W/m2
08:34 8.7 °C 5.2 °C 1020.2 hPa Calm   1.6 km/h 79% 0 mm 366 W/m2
08:40 9 °C 4.8 °C 1020.5 hPa SE 1.6 km/h 4.8 km/h 75% 0 mm 411 W/m2
08:46 9.1 °C 4.7 °C 1020.5 hPa SE 3.2 km/h 6.4 km/h 74% 0 mm 234 W/m2
08:52 9.2 °C 4.6 °C 1020.9 hPa ESE 3.2 km/h 3.2 km/h 73% 0 mm 429 W/m2
09:04 9.9 °C 4.9 °C 1020.5 hPa East 1.6 km/h 8 km/h 71% 0 mm 438 W/m2
09:10 10 °C 5 °C 1020.9 hPa ESE 3.2 km/h 4.8 km/h 71% 0 mm 510 W/m2
09:16 10.1 °C 5.1 °C 1020.9 hPa East 3.2 km/h 8 km/h 71% 0 mm 239 W/m2
09:22 9.9 °C 4.4 °C 1020.9 hPa NE 1.6 km/h 3.2 km/h 69% 0 mm 251 W/m2
09:28 9.9 °C 4.7 °C 1020.5 hPa NE 1.6 km/h 4.8 km/h 70% 0 mm 381 W/m2
09:34 10.2 °C 4.9 °C 1020.5 hPa NE 1.6 km/h 1.6 km/h 70% 0 mm 364 W/m2
09:40 10.4 °C 5.2 °C 1020.5 hPa Calm     70% 0 mm 336 W/m2
09:46 11 °C 5.5 °C 1020.5 hPa Calm   1.6 km/h 69% 0 mm 552 W/m2
09:52 11.9 °C 5.8 °C 1020.5 hPa Calm     66% 0 mm 640 W/m2
09:58 11.9 °C 5.1 °C 1020.5 hPa NNE 1.6 km/h 3.2 km/h 63% 0 mm 656 W/m2
10:10 12.9 °C 6 °C 1020.5 hPa Calm   1.6 km/h 63% 0 mm 673 W/m2
10:16 12.5 °C 5.7 °C 1020.5 hPa SE 1.6 km/h 4.8 km/h 63% 0 mm 698 W/m2
10:22 12.6 °C 5.7 °C 1020.5 hPa SSE 1.6 km/h 1.6 km/h 63% 0 mm 712 W/m2
10:28 12.9 °C 6.2 °C 1020.5 hPa South 1.6 km/h 4.8 km/h 64% 0 mm 729 W/m2
10:34 12.8 °C 4.8 °C 1020.5 hPa SSW 1.6 km/h 3.2 km/h 58% 0 mm 740 W/m2
10:40 13.3 °C 6.4 °C 1020.9 hPa SW 1.6 km/h 1.6 km/h 63% 0 mm 751 W/m2
10:46 13.4 °C 5.3 °C 1020.5 hPa NNW 1.6 km/h 3.2 km/h 58% 0 mm 763 W/m2
10:52 13.7 °C 5.6 °C 1020.5 hPa South 1.6 km/h 4.8 km/h 58% 0 mm 777 W/m2
11:04 14.2 °C 7.3 °C 1020.5 hPa SSW 1.6 km/h 4.8 km/h 63% 0 mm 798 W/m2
11:10 14.3 °C 7.3 °C 1020.5 hPa SSW 1.6 km/h 3.2 km/h 63% 0 mm 810 W/m2
11:16 14.5 °C 6.1 °C 1020.5 hPa SW 1.6 km/h 6.4 km/h 57% 0 mm 817 W/m2
11:22 14.1 °C 6.2 °C 1020.5 hPa SW 3.2 km/h 6.4 km/h 59% 0 mm 826 W/m2
11:28 14.7 °C 6 °C 1020.2 hPa NNW 1.6 km/h 6.4 km/h 56% 0 mm 833 W/m2
11:34 15.4 °C 6.7 °C 1020.2 hPa WNW 1.6 km/h 1.6 km/h 56% 0 mm 847 W/m2
11:40 15.5 °C 6.5 °C 1020.2 hPa WNW 1.6 km/h 1.6 km/h 55% 0 mm 849 W/m2
11:46 15.4 °C 6.1 °C 1020.2 hPa WNW 1.6 km/h 3.2 km/h 54% 0 mm 854 W/m2
11:52 15.9 °C 7.1 °C 1020.2 hPa WNW 1.6 km/h 3.2 km/h 56% 0 mm 856 W/m2
11:58 16.1 °C 8.1 °C 1020.2 hPa WNW 1.6 km/h 3.2 km/h 59% 0 mm 863 W/m2
12:04 15.9 °C 5.8 °C 1020.2 hPa WSW 1.6 km/h 4.8 km/h 51% 0 mm 867 W/m2
12:10 16.1 °C 8.6 °C 1020.2 hPa WSW 1.6 km/h 1.6 km/h 61% 0 mm 877 W/m2
12:16 15.9 °C 6.1 °C 1020.2 hPa SW 1.6 km/h 9.7 km/h 52% 0 mm 882 W/m2
12:22 16.1 °C 5.9 °C 1019.9 hPa SW 1.6 km/h 3.2 km/h 51% 0 mm 831 W/m2
12:28 16.4 °C 6.2 °C 1019.9 hPa WSW 1.6 km/h 3.2 km/h 51% 0 mm 886 W/m2
12:34 16.3 °C 5.2 °C 1019.9 hPa WSW 1.6 km/h 3.2 km/h 48% 0 mm 888 W/m2
12:40 16.8 °C 6.9 °C 1019.9 hPa WSW 1.6 km/h 4.8 km/h 52% 0 mm 893 W/m2
12:46 17.3 °C 6.8 °C 1019.9 hPa WSW 3.2 km/h 4.8 km/h 50% 0 mm 900 W/m2
12:52 17.3 °C 7.6 °C 1019.5 hPa WSW 1.6 km/h 4.8 km/h 53% 0 mm 898 W/m2
12:58 17.5 °C 7.8 °C 1019.5 hPa NW 3.2 km/h 8 km/h 53% 0 mm 898 W/m2
13:04 17.9 °C 7 °C 1019.5 hPa North 4.8 km/h 9.7 km/h 49% 0 mm 896 W/m2
13:10 17.8 °C 6.1 °C 1019.5 hPa NNW 4.8 km/h 4.8 km/h 46% 0 mm 896 W/m2
13:16 17.9 °C 5.2 °C 1019.5 hPa NNE 4.8 km/h 6.4 km/h 43% 0 mm 896 W/m2
13:22 18.2 °C 7 °C 1019.2 hPa NW 3.2 km/h 6.4 km/h 48% 0 mm 896 W/m2
13:28 18.6 °C 4.7 °C 1019.2 hPa NNE 3.2 km/h 12.9 km/h 40% 0 mm 898 W/m2
13:34 18.3 °C 5.1 °C 1019.2 hPa North 4.8 km/h 4.8 km/h 42% 0 mm 895 W/m2
13:40 18.2 °C 5.4 °C 1019.2 hPa NNE 3.2 km/h 3.2 km/h 43% 0 mm 888 W/m2
13:46 18.4 °C 3.8 °C 1019.2 hPa ENE 4.8 km/h 6.4 km/h 38% 0 mm 888 W/m2
13:58 18.6 °C 4 °C 1018.8 hPa NNE 4.8 km/h 8 km/h 38% 0 mm 879 W/m2
14:04 18.7 °C 4.8 °C 1018.8 hPa NNW 4.8 km/h 8 km/h 40% 0 mm 882 W/m2
14:10 19.1 °C 4.1 °C 1018.8 hPa NE 4.8 km/h 4.8 km/h 37% 0 mm 868 W/m2
14:16 18.7 °C 4.1 °C 1018.8 hPa NE 3.2 km/h 4.8 km/h 38% 0 mm 865 W/m2
14:22 18.8 °C 5.2 °C 1018.8 hPa ENE 3.2 km/h 3.2 km/h 41% 0 mm 854 W/m2
14:28 19.5 °C 5.2 °C 1018.8 hPa NNW 3.2 km/h 6.4 km/h 39% 0 mm 847 W/m2
14:34 19.6 °C 5.9 °C 1018.5 hPa NW 4.8 km/h 8 km/h 41% 0 mm 828 W/m2
14:40 19.8 °C 3.9 °C 1018.5 hPa NNW 4.8 km/h 4.8 km/h 35% 0 mm 830 W/m2
14:46 19.9 °C 5.6 °C 1018.5 hPa North 4.8 km/h 6.4 km/h 39% 0 mm 823 W/m2
14:52 19.7 °C 6.7 °C 1018.5 hPa NNW 6.4 km/h 6.4 km/h 43% 0 mm 809 W/m2
14:58 19.7 °C 7.8 °C 1018.5 hPa NW 8 km/h 9.7 km/h 46% 0 mm 795 W/m2
15:04 19.5 °C 8.5 °C 1018.5 hPa NNW 6.4 km/h 8 km/h 49% 0 mm 782 W/m2
15:10 19.3 °C 7.4 °C 1018.2 hPa NNW 8 km/h 11.3 km/h 46% 0 mm 779 W/m2
15:16 19.5 °C 7.6 °C 1018.2 hPa NNW 8 km/h 11.3 km/h 46% 0 mm 759 W/m2
15:22 19.3 °C 6.7 °C 1018.2 hPa NNE 6.4 km/h 6.4 km/h 44% 0 mm 754 W/m2
15:34 19.1 °C 6.8 °C 1018.2 hPa NW 8 km/h 8 km/h 45% 0 mm 728 W/m2
15:40 19.3 °C 6.4 °C 1017.8 hPa NNE 8 km/h 8 km/h 43% 0 mm 712 W/m2
15:46 19.3 °C 6.4 °C 1017.8 hPa NNE 8 km/h 12.9 km/h 43% 0 mm 701 W/m2
15:52 19.2 °C 8.2 °C 1017.8 hPa NNW 8 km/h 11.3 km/h 49% 0 mm 691 W/m2
15:58 19.7 °C 6.7 °C 1017.5 hPa NNW 6.4 km/h 12.9 km/h 43% 0 mm 671 W/m2
16:06 19.8 °C 5.8 °C 1017.5 hPa NNE 6.4 km/h 9.7 km/h 40% 0 mm 645 W/m2
16:12 19.9 °C 7.3 °C 1017.5 hPa NE 6.4 km/h 8 km/h 44% 0 mm 631 W/m2
16:18 20.2 °C 7.5 °C 1017.5 hPa North 4.8 km/h 9.7 km/h 44% 0 mm 598 W/m2
16:24 19.9 °C 5.2 °C 1017.5 hPa NNW 6.4 km/h 6.4 km/h 38% 0 mm 596 W/m2
16:30 19.8 °C 6.2 °C 1017.5 hPa ENE 4.8 km/h 6.4 km/h 41% 0 mm 584 W/m2
16:36 20.1 °C 5.7 °C 1017.2 hPa NNW 4.8 km/h 9.7 km/h 39% 0 mm 568 W/m2
16:42 20.1 °C 7.1 °C 1017.2 hPa NW 4.8 km/h 4.8 km/h 43% 0 mm 550 W/m2
16:48 20.2 °C 5.4 °C 1017.2 hPa NNE 4.8 km/h 8 km/h 38% 0 mm 531 W/m2
16:54 20.2 °C 5.8 °C 1017.2 hPa NW 4.8 km/h 4.8 km/h 39% 0 mm 515 W/m2
17:00 20.3 °C 5.9 °C 1017.2 hPa ENE 4.8 km/h 4.8 km/h 39% 0 mm 497 W/m2
17:06 20.2 °C 6.8 °C 1016.8 hPa NNE 6.4 km/h 12.9 km/h 42% 0 mm 480 W/m2
17:12 20.1 °C 5.7 °C 1016.8 hPa ENE 6.4 km/h 8 km/h 39% 0 mm 461 W/m2
17:18 20 °C 5.2 °C 1016.8 hPa NE 4.8 km/h 9.7 km/h 38% 0 mm 432 W/m2
17:24 19.8 °C 5.8 °C 1016.8 hPa NW 6.4 km/h 9.7 km/h 40% 0 mm 399 W/m2
17:30 19.6 °C 5.6 °C 1016.8 hPa NNE 8 km/h 9.7 km/h 40% 0 mm 360 W/m2
17:36 19.6 °C 5.9 °C 1016.8 hPa NNW 6.4 km/h 11.3 km/h 41% 0 mm 234 W/m2
17:42 19.3 °C 5.3 °C 1016.8 hPa NNW 6.4 km/h 9.7 km/h 40% 0 mm 199 W/m2
17:48 19.1 °C 5.2 °C 1016.5 hPa North 8 km/h 9.7 km/h 40% 0 mm 146 W/m2
17:54 19.1 °C 4.8 °C 1016.5 hPa NW 8 km/h 9.7 km/h 39% 0 mm 107 W/m2
18:00 18.8 °C 4.9 °C 1016.5 hPa North 8 km/h 11.3 km/h 40% 0 mm 105 W/m2
18:06 18.8 °C 5.6 °C 1016.5 hPa NW 8 km/h 11.3 km/h 42% 0 mm 167 W/m2
18:12 18.5 °C 5 °C 1016.5 hPa WNW 8 km/h 8 km/h 41% 0 mm 149 W/m2
18:18 18.4 °C 4.9 °C 1016.5 hPa North 8 km/h 8 km/h 41% 0 mm 148 W/m2
18:24 18.4 °C 4.9 °C 1016.5 hPa NNW 6.4 km/h 6.4 km/h 41% 0 mm 84 W/m2
18:30 18.4 °C 4.9 °C 1016.5 hPa North 6.4 km/h 6.4 km/h 41% 0 mm 86 W/m2
18:36 18.4 °C 4.6 °C 1016.5 hPa North 6.4 km/h 8 km/h 40% 0 mm 76 W/m2
18:42 18.3 °C 4.5 °C 1016.5 hPa NNW 6.4 km/h 6.4 km/h 40% 0 mm 60 W/m2
18:48 18.2 °C 5.1 °C 1016.5 hPa NNW 6.4 km/h 8 km/h 42% 0 mm 104 W/m2
18:54 18.1 °C 4.6 °C 1016.5 hPa NNW 6.4 km/h 9.7 km/h 41% 0 mm 49 W/m2
19:00 17.9 °C 4.8 °C 1016.5 hPa NNW 6.4 km/h 6.4 km/h 42% 0 mm 46 W/m2
19:06 17.7 °C 5 °C 1016.5 hPa NNW 4.8 km/h 6.4 km/h 43% 0 mm 54 W/m2
19:12 17.5 °C 4.8 °C 1016.5 hPa NW 4.8 km/h 4.8 km/h 43% 0 mm 40 W/m2
19:18 17.3 °C 4.9 °C 1016.5 hPa NW 4.8 km/h 4.8 km/h 44% 0 mm 30 W/m2
19:24 17.1 °C 4.7 °C 1016.5 hPa NNW 4.8 km/h 4.8 km/h 44% 0 mm 26 W/m2
19:30 16.9 °C 5.2 °C 1016.5 hPa NNW 4.8 km/h 4.8 km/h 46% 0 mm 21 W/m2
19:36 16.8 °C 4.8 °C 1016.5 hPa NW 4.8 km/h 8 km/h 45% 0 mm 19 W/m2
19:42 16.5 °C 4.8 °C 1016.5 hPa NW 3.2 km/h 3.2 km/h 46% 0 mm 12 W/m2
19:48 16.2 °C 4.6 °C 1016.5 hPa North 3.2 km/h 3.2 km/h 46% 0 mm 9 W/m2
19:54 16.1 °C 4.7 °C 1016.5 hPa North 3.2 km/h 3.2 km/h 47% 0 mm 5 W/m2
20:06 15.6 °C 4.6 °C 1016.5 hPa Calm   1.6 km/h 48% 0 mm 0 W/m2
20:12 15.3 °C 4.6 °C 1016.5 hPa Calm     49% 0 mm 0 W/m2
20:18 14.9 °C 4.6 °C 1016.5 hPa Calm     50% 0 mm 0 W/m2
20:24 14.7 °C 4.9 °C 1016.5 hPa North 1.6 km/h 1.6 km/h 52% 0 mm 0 W/m2
20:30 14.4 °C 4.4 °C 1016.5 hPa North 1.6 km/h 1.6 km/h 51% 0 mm 0 W/m2
20:36 14.4 °C 4.4 °C 1016.5 hPa North 1.6 km/h 1.6 km/h 51% 0 mm 0 W/m2
20:48 14.2 °C 4.4 °C 1016.5 hPa Calm   1.6 km/h 52% 0 mm 0 W/m2
20:54 14.1 °C 4.1 °C 1016.8 hPa Calm   3.2 km/h 51% 0 mm 0 W/m2
21:00 14.1 °C 6.2 °C 1016.8 hPa Calm   4.8 km/h 59% 0 mm 0 W/m2
21:06 13.8 °C 6.4 °C 1016.8 hPa Calm   4.8 km/h 61% 0 mm 0 W/m2
21:12 13.6 °C 6.9 °C 1016.8 hPa Calm   3.2 km/h 64% 0 mm 0 W/m2
21:18 13.4 °C 6 °C 1016.8 hPa Calm   3.2 km/h 61% 0 mm 0 W/m2
21:24 13.3 °C 6.6 °C 1016.8 hPa Calm   1.6 km/h 64% 0 mm 0 W/m2
21:30 13.1 °C 6.4 °C 1017.2 hPa Calm     64% 0 mm 0 W/m2
21:36 12.7 °C 5.6 °C 1017.2 hPa Calm     62% 0 mm 0 W/m2
21:42 12.5 °C 5.9 °C 1017.2 hPa Calm     64% 0 mm 0 W/m2
21:48 12.2 °C 5.8 °C 1017.2 hPa Calm     65% 0 mm 0 W/m2
21:54 12.1 °C 6.1 °C 1017.2 hPa Calm     67% 0 mm 0 W/m2
22:00 11.8 °C 6.1 °C 1017.2 hPa Calm   1.6 km/h 68% 0 mm 0 W/m2
22:06 11.8 °C 6.1 °C 1017.2 hPa Calm   1.6 km/h 68% 0 mm 0 W/m2
22:12 11.8 °C 5.7 °C 1017.2 hPa Calm   4.8 km/h 66% 0 mm 0 W/m2
22:18 11.8 °C 6.6 °C 1017.2 hPa Calm   4.8 km/h 70% 0 mm 0 W/m2
22:24 11.6 °C 5.4 °C 1017.5 hPa Calm   8 km/h 66% 0 mm 0 W/m2
22:30 12.3 °C 5.3 °C 1017.5 hPa SSE 3.2 km/h 3.2 km/h 62% 0 mm 0 W/m2
22:42 11.8 °C 5.4 °C 1017.5 hPa Calm     65% 0 mm 0 W/m2
22:48 11.6 °C 4.8 °C 1017.5 hPa Calm     63% 0 mm 0 W/m2
22:54 11.6 °C 5.2 °C 1017.2 hPa Calm     65% 0 mm 0 W/m2
23:00 11.7 °C 4.6 °C 1017.2 hPa East 1.6 km/h 1.6 km/h 62% 0 mm 0 W/m2
23:06 11.7 °C 5.8 °C 1017.2 hPa East 1.6 km/h 3.2 km/h 67% 0 mm 0 W/m2
23:12 11.6 °C 6.3 °C 1017.5 hPa Calm     70% 0 mm 0 W/m2
23:18 11.4 °C 5.9 °C 1017.2 hPa Calm   1.6 km/h 69% 0 mm 0 W/m2
23:24 11.3 °C 4.9 °C 1017.5 hPa South 1.6 km/h 3.2 km/h 65% 0 mm 0 W/m2
23:30 11.1 °C 6.1 °C 1017.5 hPa SSE 1.6 km/h 6.4 km/h 71% 0 mm 0 W/m2
23:36 11.1 °C 4.8 °C 1017.5 hPa SSE 1.6 km/h 6.4 km/h 65% 0 mm 0 W/m2
23:42 10.8 °C 5.6 °C 1017.5 hPa SSE 1.6 km/h 1.6 km/h 70% 0 mm 0 W/m2
23:48 10.4 °C 5.2 °C 1017.5 hPa Calm   1.6 km/h 70% 0 mm 0 W/m2
23:54 10.2 °C 5.2 °C 1017.5 hPa Calm     71% 0 mm 0 W/m2
Country Meadow, Clay, NY, USA
Compliments of Weather Underground - 2 mb